createdAt,value
2018-07-22T00:01:05.657Z,20.42
2018-07-22T00:03:34.549Z,20.38
2018-07-22T00:06:03.763Z,20.37
2018-07-22T00:08:32.792Z,20.34
2018-07-22T00:11:01.903Z,20.30
2018-07-22T00:13:30.893Z,20.25
2018-07-22T00:15:59.994Z,20.23
2018-07-22T00:18:28.847Z,20.18
2018-07-22T00:20:57.714Z,20.12
2018-07-22T00:23:26.582Z,20.10
2018-07-22T00:25:55.698Z,20.07
2018-07-22T00:28:25.152Z,20.02
2018-07-22T00:30:53.908Z,20.00
2018-07-22T00:33:23.051Z,19.96
2018-07-22T00:35:51.810Z,19.92
2018-07-22T00:38:21.165Z,19.91
2018-07-22T00:40:50.107Z,19.85
2018-07-22T00:43:18.887Z,19.81
2018-07-22T00:45:48.355Z,19.75
2018-07-22T00:48:17.750Z,19.74
2018-07-22T00:50:47.134Z,19.72
2018-07-22T00:53:16.304Z,19.70
2018-07-22T00:55:45.076Z,19.66
2018-07-22T00:58:14.091Z,19.59
2018-07-22T01:00:43.447Z,19.55
2018-07-22T01:03:12.460Z,19.49
2018-07-22T01:05:42.124Z,19.42
2018-07-22T01:08:10.921Z,19.36
2018-07-22T01:10:40.632Z,19.27
2018-07-22T01:13:10.078Z,19.22
2018-07-22T01:15:44.559Z,19.17
2018-07-22T01:18:13.663Z,19.11
2018-07-22T01:20:43.041Z,19.07
2018-07-22T01:23:12.801Z,19.04
2018-07-22T01:25:41.998Z,18.99
2018-07-22T01:28:11.025Z,18.96
2018-07-22T01:30:39.821Z,18.91
2018-07-22T01:33:08.835Z,18.89
2018-07-22T01:35:38.231Z,18.89
2018-07-22T01:38:07.108Z,18.86
2018-07-22T01:40:36.253Z,18.85
2018-07-22T01:43:05.420Z,18.86
2018-07-22T01:45:34.262Z,18.83
2018-07-22T01:48:03.839Z,18.84
2018-07-22T01:50:32.599Z,18.87
2018-07-22T01:53:01.675Z,18.87
2018-07-22T01:55:30.794Z,18.88
2018-07-22T01:57:59.606Z,18.86
2018-07-22T02:00:28.452Z,18.87
2018-07-22T02:02:59.907Z,18.86
2018-07-22T02:05:30.587Z,18.89
2018-07-22T02:07:59.362Z,18.92
2018-07-22T02:10:28.753Z,18.92
2018-07-22T02:12:57.728Z,18.91
2018-07-22T02:15:26.822Z,18.91
2018-07-22T02:17:55.927Z,18.93
2018-07-22T02:20:25.280Z,18.96
2018-07-22T02:22:54.600Z,18.97
2018-07-22T02:25:23.929Z,19.01
2018-07-22T02:27:53.126Z,19.03
2018-07-22T02:30:22.381Z,19.01
2018-07-22T02:32:51.439Z,19.00
2018-07-22T02:35:20.548Z,18.97
2018-07-22T02:37:49.628Z,18.93
2018-07-22T02:40:18.916Z,18.91
2018-07-22T02:42:48.408Z,18.89
2018-07-22T02:45:17.219Z,18.87
2018-07-22T02:47:46.073Z,18.84
2018-07-22T02:50:14.835Z,18.84
2018-07-22T02:52:43.573Z,18.82
2018-07-22T02:55:12.968Z,18.81
2018-07-22T02:57:41.719Z,18.83
2018-07-22T03:00:11.029Z,18.83
2018-07-22T03:02:41.548Z,18.84
2018-07-22T03:05:10.999Z,18.85
2018-07-22T03:07:40.382Z,18.86
2018-07-22T03:10:09.130Z,18.84
2018-07-22T03:12:38.227Z,18.83
2018-07-22T03:15:07.901Z,18.83
2018-07-22T03:17:36.680Z,18.82
2018-07-22T03:20:05.864Z,18.81
2018-07-22T03:22:34.903Z,18.80
2018-07-22T03:25:03.893Z,18.81
2018-07-22T03:27:32.677Z,18.81
2018-07-22T03:30:01.542Z,18.82
2018-07-22T03:32:30.338Z,18.78
2018-07-22T03:34:59.127Z,18.76
2018-07-22T03:37:27.945Z,18.74
2018-07-22T03:39:57.051Z,18.73
2018-07-22T03:42:25.917Z,18.67
2018-07-22T03:44:55.235Z,18.59
2018-07-22T03:47:24.036Z,18.56
2018-07-22T03:49:53.646Z,18.53
2018-07-22T03:52:22.712Z,18.49
2018-07-22T03:54:51.839Z,18.44
2018-07-22T03:57:20.787Z,18.42
2018-07-22T03:59:49.714Z,18.41
2018-07-22T04:02:18.585Z,18.37
2018-07-22T04:04:47.558Z,18.36
2018-07-22T04:07:16.374Z,18.39
2018-07-22T04:09:46.197Z,18.41
2018-07-22T04:12:15.054Z,18.41
2018-07-22T04:14:43.979Z,18.38
2018-07-22T04:17:13.349Z,18.36
2018-07-22T04:19:42.709Z,18.37
2018-07-22T04:22:11.518Z,18.34
2018-07-22T04:24:40.624Z,18.34
2018-07-22T04:27:09.691Z,18.37
2018-07-22T04:29:38.935Z,18.41
2018-07-22T04:32:08.220Z,18.40
2018-07-22T04:34:37.777Z,18.41
2018-07-22T04:37:06.819Z,18.45
2018-07-22T04:39:35.752Z,18.47
2018-07-22T04:42:04.558Z,18.48
2018-07-22T04:44:33.363Z,18.53
2018-07-22T04:47:02.528Z,18.55
2018-07-22T04:49:32.020Z,18.56
2018-07-22T04:52:00.889Z,18.55
2018-07-22T04:54:30.419Z,18.54
2018-07-22T04:56:59.510Z,18.54
2018-07-22T04:59:28.318Z,18.57
2018-07-22T05:01:57.248Z,18.60
2018-07-22T05:04:26.516Z,18.64
2018-07-22T05:06:55.380Z,18.66
2018-07-22T05:09:24.561Z,18.70
2018-07-22T05:11:54.041Z,18.74
2018-07-22T05:14:22.856Z,18.81
2018-07-22T05:16:52.432Z,18.83
2018-07-22T05:19:21.768Z,18.84
2018-07-22T05:21:50.878Z,18.90
2018-07-22T05:24:19.994Z,18.96
2018-07-22T05:26:49.000Z,18.99
2018-07-22T05:29:17.887Z,19.02
2018-07-22T05:31:46.612Z,19.08
2018-07-22T05:34:16.182Z,19.15
2018-07-22T05:36:45.555Z,19.17
2018-07-22T05:39:14.752Z,19.21
2018-07-22T05:41:44.100Z,19.27
2018-07-22T05:44:12.867Z,19.35
2018-07-22T05:46:42.073Z,19.40
2018-07-22T05:49:10.980Z,19.47
2018-07-22T05:51:39.793Z,19.55
2018-07-22T05:54:08.924Z,19.68
2018-07-22T05:56:38.452Z,19.77
2018-07-22T05:59:07.869Z,19.86
2018-07-22T06:01:36.701Z,19.95
2018-07-22T06:04:05.434Z,20.05
2018-07-22T06:06:34.758Z,20.15
2018-07-22T06:09:04.120Z,20.27
2018-07-22T06:11:33.015Z,20.34
2018-07-22T06:14:02.155Z,20.43
2018-07-22T06:16:31.047Z,20.52
2018-07-22T06:19:00.337Z,20.61
2018-07-22T06:21:29.328Z,20.62
2018-07-22T06:23:58.260Z,20.63
2018-07-22T06:26:27.047Z,20.69
2018-07-22T06:28:56.108Z,20.77
2018-07-22T06:31:25.203Z,20.85
2018-07-22T06:33:54.567Z,20.93
2018-07-22T06:36:23.717Z,20.98
2018-07-22T06:38:52.713Z,21.05
2018-07-22T06:41:21.495Z,21.13
2018-07-22T06:43:50.488Z,21.13
2018-07-22T06:46:19.258Z,21.17
2018-07-22T06:48:48.281Z,21.27
2018-07-22T06:51:17.660Z,21.42
2018-07-22T06:53:46.988Z,21.55
2018-07-22T06:56:15.821Z,21.65
2018-07-22T06:58:44.518Z,21.76
2018-07-22T07:01:13.748Z,21.83
2018-07-22T07:03:43.030Z,21.86
2018-07-22T07:06:11.989Z,22.00
2018-07-22T07:08:41.057Z,22.06
2018-07-22T07:11:09.799Z,22.17
2018-07-22T07:13:38.933Z,22.31
2018-07-22T07:16:08.681Z,22.45
2018-07-22T07:18:38.174Z,22.56
2018-07-22T07:21:07.595Z,22.70
2018-07-22T07:23:36.677Z,22.81
2018-07-22T07:26:06.050Z,22.96
2018-07-22T07:28:34.768Z,23.06
2018-07-22T07:31:03.535Z,23.14
2018-07-22T07:33:32.504Z,23.25
2018-07-22T07:36:01.614Z,23.39
2018-07-22T07:38:30.354Z,23.49
2018-07-22T07:40:59.116Z,23.56
2018-07-22T07:43:28.503Z,23.66
2018-07-22T07:45:57.542Z,23.68
2018-07-22T07:48:26.692Z,23.78
2018-07-22T07:50:55.966Z,23.89
2018-07-22T07:53:25.164Z,23.95
2018-07-22T07:55:54.194Z,24.01
2018-07-22T07:58:23.563Z,24.14
2018-07-22T08:00:53.378Z,24.27
2018-07-22T08:03:22.551Z,24.46
2018-07-22T08:05:51.956Z,24.58
2018-07-22T08:08:20.705Z,24.69
2018-07-22T08:10:50.311Z,24.75
2018-07-22T08:13:19.657Z,24.72
2018-07-22T08:15:48.988Z,24.80
2018-07-22T08:18:18.059Z,24.93
2018-07-22T08:20:47.051Z,25.07
2018-07-22T08:23:16.492Z,25.19
2018-07-22T08:25:46.001Z,25.33
2018-07-22T08:28:16.379Z,25.43
2018-07-22T08:30:45.392Z,25.54
2018-07-22T08:33:14.338Z,25.48
2018-07-22T08:35:43.557Z,25.48
2018-07-22T08:38:12.570Z,25.47
2018-07-22T08:40:41.345Z,25.55
2018-07-22T08:43:10.422Z,25.59
2018-07-22T08:45:39.763Z,25.59
2018-07-22T08:48:08.455Z,25.65
2018-07-22T08:50:37.791Z,25.66
2018-07-22T08:53:06.885Z,25.67
2018-07-22T08:55:35.628Z,25.68
2018-07-22T08:58:04.391Z,25.65
2018-07-22T09:00:33.410Z,25.67
2018-07-22T09:03:02.882Z,25.67
2018-07-22T09:05:32.169Z,25.79
2018-07-22T09:08:01.223Z,25.87
2018-07-22T09:10:30.338Z,26.04
2018-07-22T09:12:59.142Z,26.28
2018-07-22T09:15:28.239Z,26.32
2018-07-22T09:17:57.264Z,26.53
2018-07-22T09:20:26.025Z,26.57
2018-07-22T09:22:54.761Z,26.57
2018-07-22T09:25:24.182Z,26.71
2018-07-22T09:27:53.305Z,26.91
2018-07-22T09:30:22.419Z,27.05
2018-07-22T09:32:51.135Z,27.15
2018-07-22T09:35:20.116Z,27.01
2018-07-22T09:37:49.166Z,26.96
2018-07-22T09:40:18.234Z,27.04
2018-07-22T09:42:47.055Z,27.11
2018-07-22T09:45:16.141Z,27.24
2018-07-22T09:47:44.973Z,27.35
2018-07-22T09:50:14.306Z,27.52
2018-07-22T09:52:43.579Z,27.54
2018-07-22T09:55:12.863Z,27.63
2018-07-22T09:57:41.979Z,27.69
2018-07-22T10:00:10.805Z,27.88
2018-07-22T10:02:39.905Z,28.04
2018-07-22T10:05:08.678Z,27.89
2018-07-22T10:07:39.652Z,27.98
2018-07-22T10:10:08.472Z,27.92
2018-07-22T10:12:40.590Z,27.82
2018-07-22T10:15:10.290Z,28.04
2018-07-22T10:17:39.481Z,28.34
2018-07-22T10:20:08.282Z,28.52
2018-07-22T10:22:37.581Z,28.36
2018-07-22T10:25:10.443Z,28.11
2018-07-22T10:27:39.691Z,28.20
2018-07-22T10:30:09.131Z,28.51
2018-07-22T10:32:43.114Z,28.69
2018-07-22T10:35:12.881Z,28.97
2018-07-22T10:37:41.712Z,28.99
2018-07-22T10:40:10.770Z,29.07
2018-07-22T10:42:39.767Z,29.15
2018-07-22T10:45:08.794Z,28.95
2018-07-22T10:47:38.164Z,28.96
2018-07-22T10:50:08.381Z,28.97
2018-07-22T10:52:37.297Z,29.02
2018-07-22T10:55:06.108Z,29.25
2018-07-22T10:57:35.154Z,29.41
2018-07-22T11:00:04.451Z,29.43
2018-07-22T11:02:33.288Z,29.55
2018-07-22T11:05:02.054Z,29.31
2018-07-22T11:07:31.360Z,29.45
2018-07-22T11:10:00.187Z,29.63
2018-07-22T11:12:29.297Z,29.56
2018-07-22T11:14:59.781Z,29.26
2018-07-22T11:17:28.632Z,29.30
2018-07-22T11:19:57.627Z,29.43
2018-07-22T11:22:26.668Z,29.77
2018-07-22T11:24:55.949Z,29.87
2018-07-22T11:27:25.514Z,29.62
2018-07-22T11:29:54.281Z,29.20
2018-07-22T11:32:23.313Z,28.90
2018-07-22T11:34:53.512Z,28.55
2018-07-22T11:37:24.163Z,28.46
2018-07-22T11:39:54.224Z,28.28
2018-07-22T11:42:26.395Z,28.50
2018-07-22T11:44:55.455Z,28.70
2018-07-22T11:47:24.834Z,28.92
2018-07-22T11:49:53.973Z,28.91
2018-07-22T11:52:23.056Z,28.79
2018-07-22T11:54:51.879Z,28.67
2018-07-22T11:57:20.931Z,28.48
2018-07-22T11:59:50.787Z,28.30
2018-07-22T12:02:19.683Z,28.63
2018-07-22T12:04:48.734Z,28.94
2018-07-22T12:07:17.847Z,29.13
2018-07-22T12:09:46.677Z,29.12
2018-07-22T12:12:16.230Z,29.11
2018-07-22T12:14:45.209Z,29.07
2018-07-22T12:17:14.236Z,28.98
2018-07-22T12:19:43.019Z,28.88
2018-07-22T12:22:16.833Z,28.81
2018-07-22T12:24:46.382Z,28.80
2018-07-22T12:27:15.206Z,28.75
2018-07-22T12:29:44.387Z,28.76
2018-07-22T12:32:13.454Z,28.69
2018-07-22T12:34:42.586Z,28.79
2018-07-22T12:37:11.391Z,28.97
2018-07-22T12:39:41.296Z,29.14
2018-07-22T12:42:10.406Z,29.26
2018-07-22T12:44:44.547Z,29.27
2018-07-22T12:47:16.148Z,29.22
2018-07-22T12:49:45.572Z,29.09
2018-07-22T12:52:14.357Z,29.15
2018-07-22T12:54:43.594Z,29.26
2018-07-22T12:57:12.665Z,29.32
2018-07-22T12:59:42.014Z,29.33
2018-07-22T13:02:11.125Z,29.47
2018-07-22T13:04:40.508Z,29.41
2018-07-22T13:07:12.120Z,29.48
2018-07-22T13:09:41.586Z,29.48
2018-07-22T13:12:10.590Z,29.29
2018-07-22T13:14:39.692Z,29.17
2018-07-22T13:17:12.176Z,29.38
2018-07-22T13:19:41.238Z,29.44
2018-07-22T13:22:09.955Z,29.43
2018-07-22T13:24:39.000Z,29.33
2018-07-22T13:27:08.098Z,29.04
2018-07-22T13:29:36.916Z,28.97
2018-07-22T13:32:06.418Z,28.70
2018-07-22T13:34:35.460Z,28.60
2018-07-22T13:37:04.733Z,28.43
2018-07-22T13:39:33.856Z,28.79
2018-07-22T13:42:04.374Z,29.23
2018-07-22T13:44:33.282Z,29.55
2018-07-22T13:47:02.190Z,29.89
2018-07-22T13:49:31.113Z,30.23
2018-07-22T13:52:00.218Z,30.27
2018-07-22T13:54:29.179Z,29.95
2018-07-22T13:56:58.575Z,29.80
2018-07-22T13:59:27.392Z,29.70
2018-07-22T14:01:56.469Z,29.68
2018-07-22T14:04:25.296Z,29.65
2018-07-22T14:06:54.108Z,29.54
2018-07-22T14:09:23.248Z,29.69
2018-07-22T14:11:52.428Z,29.58
2018-07-22T14:14:21.843Z,29.37
2018-07-22T14:16:50.654Z,29.22
2018-07-22T14:19:19.611Z,29.26
2018-07-22T14:21:48.521Z,29.35
2018-07-22T14:24:17.641Z,29.32
2018-07-22T14:26:46.358Z,29.37
2018-07-22T14:29:15.451Z,29.60
2018-07-22T14:31:44.222Z,29.71
2018-07-22T14:34:13.258Z,29.92
2018-07-22T14:36:42.426Z,30.01
2018-07-22T14:39:12.974Z,30.00
2018-07-22T14:41:42.625Z,30.07
2018-07-22T14:44:11.401Z,30.04
2018-07-22T14:46:40.142Z,29.98
2018-07-22T14:49:10.237Z,29.81
2018-07-22T14:51:39.664Z,29.50
2018-07-22T14:54:08.456Z,29.39
2018-07-22T14:56:37.212Z,29.52
2018-07-22T14:59:06.092Z,29.74
2018-07-22T15:01:35.421Z,29.91
2018-07-22T15:04:04.507Z,29.92
2018-07-22T15:06:33.540Z,29.87
2018-07-22T15:09:02.954Z,29.77
2018-07-22T15:11:31.943Z,29.67
2018-07-22T15:14:01.270Z,29.59
2018-07-22T15:16:30.348Z,29.40
2018-07-22T15:18:59.170Z,29.47
2018-07-22T15:21:27.862Z,29.50
2018-07-22T15:23:56.617Z,29.52
2018-07-22T15:26:25.380Z,29.60
2018-07-22T15:28:54.918Z,29.59
2018-07-22T15:31:23.666Z,29.57
2018-07-22T15:33:52.804Z,29.61
2018-07-22T15:36:22.238Z,29.70
2018-07-22T15:38:50.979Z,29.73
2018-07-22T15:41:19.708Z,29.88
2018-07-22T15:43:48.732Z,30.05
2018-07-22T15:46:17.871Z,30.14
2018-07-22T15:48:47.303Z,30.12
2018-07-22T15:51:16.326Z,30.07
2018-07-22T15:53:45.642Z,30.03
2018-07-22T15:56:14.799Z,30.12
2018-07-22T15:58:43.883Z,30.37
2018-07-22T16:01:13.953Z,30.64
2018-07-22T16:03:42.712Z,30.86
2018-07-22T16:06:11.849Z,30.96
2018-07-22T16:08:40.996Z,30.83
2018-07-22T16:11:10.409Z,30.73
2018-07-22T16:13:39.285Z,30.72
2018-07-22T16:16:08.276Z,30.67
2018-07-22T16:18:37.047Z,30.63
2018-07-22T16:21:06.473Z,30.84
2018-07-22T16:23:35.222Z,30.98
2018-07-22T16:26:04.419Z,30.78
2018-07-22T16:28:33.171Z,30.53
2018-07-22T16:31:01.968Z,30.39
2018-07-22T16:33:31.026Z,30.55
2018-07-22T16:36:00.082Z,30.74
2018-07-22T16:38:28.803Z,30.63
2018-07-22T16:40:58.226Z,30.52
2018-07-22T16:43:27.254Z,30.49
2018-07-22T16:45:56.010Z,30.53
2018-07-22T16:48:24.900Z,30.51
2018-07-22T16:50:53.643Z,30.49
2018-07-22T16:53:22.805Z,30.29
2018-07-22T16:55:51.724Z,30.25
2018-07-22T16:58:20.478Z,30.21
2018-07-22T17:00:49.241Z,30.05
2018-07-22T17:03:18.140Z,29.99
2018-07-22T17:05:46.888Z,29.88
2018-07-22T17:08:15.678Z,29.78
2018-07-22T17:10:44.473Z,29.68
2018-07-22T17:13:13.538Z,29.56
2018-07-22T17:15:42.430Z,29.52
2018-07-22T17:18:11.137Z,29.52
2018-07-22T17:20:39.979Z,29.48
2018-07-22T17:23:08.783Z,29.55
2018-07-22T17:25:37.885Z,29.53
2018-07-22T17:28:06.686Z,29.41
2018-07-22T17:30:35.753Z,29.29
2018-07-22T17:33:04.815Z,29.22
2018-07-22T17:35:33.782Z,29.07
2018-07-22T17:38:02.541Z,28.94
2018-07-22T17:40:32.101Z,28.65
2018-07-22T17:43:01.054Z,28.46
2018-07-22T17:45:30.141Z,28.29
2018-07-22T17:47:59.145Z,27.99
2018-07-22T17:50:28.449Z,27.80
2018-07-22T17:52:57.264Z,27.64
2018-07-22T17:55:26.254Z,27.46
2018-07-22T17:57:54.976Z,27.31
2018-07-22T18:00:23.757Z,27.19
2018-07-22T18:03:33.757Z,27.05
2018-07-22T18:06:02.940Z,26.96
2018-07-22T18:08:32.568Z,26.81
2018-07-22T18:11:01.627Z,26.60
2018-07-22T18:13:30.931Z,26.48
2018-07-22T18:16:00.044Z,26.27
2018-07-22T18:18:29.318Z,26.15
2018-07-22T18:20:58.577Z,26.16
2018-07-22T18:23:27.934Z,26.16
2018-07-22T18:25:57.252Z,26.12
2018-07-22T18:28:27.475Z,26.05
2018-07-22T18:30:56.228Z,26.01
2018-07-22T18:33:24.975Z,25.90
2018-07-22T18:35:54.108Z,25.87
2018-07-22T18:38:22.875Z,25.78
2018-07-22T18:40:51.884Z,25.71
2018-07-22T18:43:20.897Z,25.68
2018-07-22T18:45:49.861Z,25.64
2018-07-22T18:48:19.324Z,25.47
2018-07-22T18:50:48.015Z,25.34
2018-07-22T18:53:16.725Z,25.25
2018-07-22T18:55:45.510Z,25.17
2018-07-22T18:58:14.517Z,25.10
2018-07-22T19:00:43.483Z,25.04
2018-07-22T19:03:12.227Z,24.94
2018-07-22T19:05:41.703Z,24.94
2018-07-22T19:08:11.023Z,24.91
2018-07-22T19:10:39.784Z,24.86
2018-07-22T19:13:08.878Z,24.80
2018-07-22T19:15:40.315Z,24.73
2018-07-22T19:18:09.875Z,24.64
2018-07-22T19:20:38.917Z,24.57
2018-07-22T19:23:08.425Z,24.56
2018-07-22T19:25:37.202Z,24.54
2018-07-22T19:28:07.044Z,24.47
2018-07-22T19:30:36.332Z,24.44
2018-07-22T19:33:05.062Z,24.32
2018-07-22T19:35:34.084Z,24.24
2018-07-22T19:38:03.129Z,24.16
2018-07-22T19:40:32.465Z,24.09
2018-07-22T19:43:01.834Z,24.02
2018-07-22T19:45:31.131Z,23.95
2018-07-22T19:48:00.802Z,23.91
2018-07-22T19:50:29.548Z,23.83
2018-07-22T19:52:58.325Z,23.79
2018-07-22T19:55:27.437Z,23.72
2018-07-22T19:57:56.524Z,23.68
2018-07-22T20:00:26.343Z,23.64
2018-07-22T20:02:55.097Z,23.52
2018-07-22T20:05:24.498Z,23.46
2018-07-22T20:07:53.741Z,23.35
2018-07-22T20:10:23.322Z,23.28
2018-07-22T20:12:52.402Z,23.25
2018-07-22T20:15:21.395Z,23.27
2018-07-22T20:17:50.241Z,23.20
2018-07-22T20:20:19.100Z,23.18
2018-07-22T20:22:52.170Z,23.14
2018-07-22T20:25:21.874Z,23.07
2018-07-22T20:27:50.633Z,23.03
2018-07-22T20:30:19.748Z,22.96
2018-07-22T20:32:48.908Z,22.92
2018-07-22T20:35:17.642Z,22.84
2018-07-22T20:37:46.611Z,22.76
2018-07-22T20:40:15.435Z,22.71
2018-07-22T20:42:45.025Z,22.67
2018-07-22T20:45:14.150Z,22.64
2018-07-22T20:47:44.107Z,22.61
2018-07-22T20:50:13.162Z,22.55
2018-07-22T20:52:42.263Z,22.48
2018-07-22T20:55:10.975Z,22.42
2018-07-22T20:57:39.994Z,22.46
2018-07-22T21:00:08.732Z,22.43
2018-07-22T21:02:37.484Z,22.40
2018-07-22T21:05:06.784Z,22.41
2018-07-22T21:07:35.792Z,22.38
2018-07-22T21:10:04.580Z,22.38
2018-07-22T21:12:47.604Z,22.34
2018-07-22T21:15:17.311Z,22.30
2018-07-22T21:17:47.349Z,22.35
2018-07-22T21:20:17.288Z,22.37
2018-07-22T21:22:46.061Z,22.37
2018-07-22T21:25:15.374Z,22.34
2018-07-22T21:27:44.284Z,22.30
2018-07-22T21:30:14.201Z,22.27
2018-07-22T21:32:42.922Z,22.27
2018-07-22T21:35:11.680Z,22.26
2018-07-22T21:37:40.641Z,22.25
2018-07-22T21:40:09.774Z,22.23
2018-07-22T21:42:38.868Z,22.25
2018-07-22T21:45:08.716Z,22.24
2018-07-22T21:47:37.883Z,22.24
2018-07-22T21:50:07.663Z,22.23
2018-07-22T21:52:36.451Z,22.26
2018-07-22T21:55:06.216Z,22.26
2018-07-22T21:57:35.045Z,22.26
2018-07-22T22:00:03.955Z,22.25
2018-07-22T22:02:34.745Z,22.24
2018-07-22T22:05:06.154Z,22.21
2018-07-22T22:07:35.718Z,22.17
2018-07-22T22:10:05.542Z,22.12
2018-07-22T22:12:35.494Z,22.09
2018-07-22T22:15:05.254Z,22.06
2018-07-22T22:17:35.463Z,22.00
2018-07-22T22:20:05.155Z,21.97
2018-07-22T22:22:34.139Z,21.94
2018-07-22T22:25:02.930Z,21.91
2018-07-22T22:27:31.890Z,21.92
2018-07-22T22:30:00.607Z,21.94
2018-07-22T22:32:29.638Z,21.94
2018-07-22T22:34:58.952Z,21.94
2018-07-22T22:37:27.666Z,21.94
2018-07-22T22:39:56.740Z,21.94
2018-07-22T22:42:25.773Z,21.95
2018-07-22T22:44:55.056Z,21.93
2018-07-22T22:47:32.483Z,21.91
2018-07-22T22:50:01.839Z,21.86
2018-07-22T22:52:30.893Z,21.83
2018-07-22T22:54:59.669Z,21.85
2018-07-22T22:57:28.895Z,21.85
2018-07-22T22:59:57.654Z,21.81
2018-07-22T23:02:32.253Z,21.79
2018-07-22T23:05:00.992Z,21.75
2018-07-22T23:07:30.263Z,21.77
2018-07-22T23:09:59.731Z,21.74
2018-07-22T23:12:28.829Z,21.73
2018-07-22T23:14:57.823Z,21.72
2018-07-22T23:17:26.597Z,21.71
2018-07-22T23:19:55.871Z,21.66
2018-07-22T23:22:25.159Z,21.62
2018-07-22T23:24:53.982Z,21.57
2018-07-22T23:27:22.748Z,21.53
2018-07-22T23:29:51.854Z,21.49
2018-07-22T23:32:21.196Z,21.45
2018-07-22T23:34:50.353Z,21.42
2018-07-22T23:37:19.131Z,21.41
2018-07-22T23:39:48.582Z,21.38
2018-07-22T23:42:17.370Z,21.35
2018-07-22T23:44:46.097Z,21.32
2018-07-22T23:47:14.873Z,21.31
2018-07-22T23:49:44.004Z,21.30
2018-07-22T23:52:13.302Z,21.28
2018-07-22T23:54:42.656Z,21.27
2018-07-22T23:57:11.358Z,21.23
2018-07-22T23:59:40.171Z,21.20
